sensor_id;sensor_type;location;lat;lon;timestamp;temperature;humidity
3023;DHT22;1521;53.584;9.938;2023-03-23T00:01:17;11.00;1.00
3023;DHT22;1521;53.584;9.938;2023-03-23T00:03:48;10.90;99.90
3023;DHT22;1521;53.584;9.938;2023-03-23T00:06:14;10.90;1.00
3023;DHT22;1521;53.584;9.938;2023-03-23T00:08:44;10.80;99.90
3023;DHT22;1521;53.584;9.938;2023-03-23T00:11:14;10.80;99.90
3023;DHT22;1521;53.584;9.938;2023-03-23T00:13:44;10.70;1.00
3023;DHT22;1521;53.584;9.938;2023-03-23T00:16:11;10.70;99.90
3023;DHT22;1521;53.584;9.938;2023-03-23T00:18:47;10.70;99.90
3023;DHT22;1521;53.584;9.938;2023-03-23T00:21:15;10.60;1.00
3023;DHT22;1521;53.584;9.938;2023-03-23T00:23:40;10.60;99.90
3023;DHT22;1521;53.584;9.938;2023-03-23T00:26:10;10.60;99.90
3023;DHT22;1521;53.584;9.938;2023-03-23T00:28:36;10.60;1.00
3023;DHT22;1521;53.584;9.938;2023-03-23T00:31:04;10.60;1.00
3023;DHT22;1521;53.584;9.938;2023-03-23T00:33:35;10.60;1.00
3023;DHT22;1521;53.584;9.938;2023-03-23T00:36:13;10.60;1.00
3023;DHT22;1521;53.584;9.938;2023-03-23T00:38:40;10.60;1.00
3023;DHT22;1521;53.584;9.938;2023-03-23T00:41:07;10.60;1.00
3023;DHT22;1521;53.584;9.938;2023-03-23T00:43:33;10.60;1.00
3023;DHT22;1521;53.584;9.938;2023-03-23T00:46:03;10.60;1.00
3023;DHT22;1521;53.584;9.938;2023-03-23T00:48:34;10.50;8.70
3023;DHT22;1521;53.584;9.938;2023-03-23T00:51:01;10.60;30.50
3023;DHT22;1521;53.584;9.938;2023-03-23T00:53:32;10.50;55.40
3023;DHT22;1521;53.584;9.938;2023-03-23T00:55:57;10.50;87.00
3023;DHT22;1521;53.584;9.938;2023-03-23T00:58:23;10.60;96.20
3023;DHT22;1521;53.584;9.938;2023-03-23T01:00:49;10.60;99.90
3023;DHT22;1521;53.584;9.938;2023-03-23T01:03:14;10.60;99.90
3023;DHT22;1521;53.584;9.938;2023-03-23T01:05:44;10.60;99.90
3023;DHT22;1521;53.584;9.938;2023-03-23T01:08:12;10.60;99.90
3023;DHT22;1521;53.584;9.938;2023-03-23T01:10:38;10.60;99.90
3023;DHT22;1521;53.584;9.938;2023-03-23T01:13:04;10.60;99.90
3023;DHT22;1521;53.584;9.938;2023-03-23T01:15:30;10.60;99.90
3023;DHT22;1521;53.584;9.938;2023-03-23T01:17:56;10.60;99.90
3023;DHT22;1521;53.584;9.938;2023-03-23T01:20:23;10.60;99.90
3023;DHT22;1521;53.584;9.938;2023-03-23T01:22:49;10.70;99.90
3023;DHT22;1521;53.584;9.938;2023-03-23T01:25:15;10.70;99.90
3023;DHT22;1521;53.584;9.938;2023-03-23T01:27:40;10.60;99.90
3023;DHT22;1521;53.584;9.938;2023-03-23T01:30:10;10.70;99.90
3023;DHT22;1521;53.584;9.938;2023-03-23T01:32:37;10.70;99.90
3023;DHT22;1521;53.584;9.938;2023-03-23T01:35:03;10.70;99.90
3023;DHT22;1521;53.584;9.938;2023-03-23T01:37:30;10.60;99.90
3023;DHT22;1521;53.584;9.938;2023-03-23T01:39:56;10.60;99.90
3023;DHT22;1521;53.584;9.938;2023-03-23T01:42:23;10.70;99.90
3023;DHT22;1521;53.584;9.938;2023-03-23T01:47:15;10.70;99.90
3023;DHT22;1521;53.584;9.938;2023-03-23T01:49:44;10.60;99.90
3023;DHT22;1521;53.584;9.938;2023-03-23T01:52:15;10.60;99.90
3023;DHT22;1521;53.584;9.938;2023-03-23T01:54:44;10.60;99.90
3023;DHT22;1521;53.584;9.938;2023-03-23T01:57:14;10.60;99.90
3023;DHT22;1521;53.584;9.938;2023-03-23T01:59:42;10.60;99.90
3023;DHT22;1521;53.584;9.938;2023-03-23T02:02:10;10.60;99.90
3023;DHT22;1521;53.584;9.938;2023-03-23T02:04:37;10.70;99.90
3023;DHT22;1521;53.584;9.938;2023-03-23T02:07:03;10.70;99.90
3023;DHT22;1521;53.584;9.938;2023-03-23T02:09:29;10.70;99.90
3023;DHT22;1521;53.584;9.938;2023-03-23T02:11:55;10.70;99.90
3023;DHT22;1521;53.584;9.938;2023-03-23T02:14:23;10.70;99.90
3023;DHT22;1521;53.584;9.938;2023-03-23T02:19:53;10.70;99.90
3023;DHT22;1521;53.584;9.938;2023-03-23T02:25:19;10.70;99.90
3023;DHT22;1521;53.584;9.938;2023-03-23T02:28:15;10.70;99.90
3023;DHT22;1521;53.584;9.938;2023-03-23T02:33:38;10.70;99.90
3023;DHT22;1521;53.584;9.938;2023-03-23T02:36:22;10.70;99.90
3023;DHT22;1521;53.584;9.938;2023-03-23T02:38:57;10.70;99.90
3023;DHT22;1521;53.584;9.938;2023-03-23T02:41:32;10.70;99.90
3023;DHT22;1521;53.584;9.938;2023-03-23T02:44:02;10.70;99.90
3023;DHT22;1521;53.584;9.938;2023-03-23T02:46:29;10.70;99.90
3023;DHT22;1521;53.584;9.938;2023-03-23T02:48:56;10.70;99.90
3023;DHT22;1521;53.584;9.938;2023-03-23T02:51:24;10.70;99.90
3023;DHT22;1521;53.584;9.938;2023-03-23T02:53:51;10.70;99.90
3023;DHT22;1521;53.584;9.938;2023-03-23T02:56:19;10.70;99.90
3023;DHT22;1521;53.584;9.938;2023-03-23T02:58:46;10.70;99.90
3023;DHT22;1521;53.584;9.938;2023-03-23T03:04:00;10.70;99.90
3023;DHT22;1521;53.584;9.938;2023-03-23T03:09:41;10.70;99.90
3023;DHT22;1521;53.584;9.938;2023-03-23T03:12:39;10.80;99.90
3023;DHT22;1521;53.584;9.938;2023-03-23T03:15:12;10.80;99.90
3023;DHT22;1521;53.584;9.938;2023-03-23T03:17:59;10.80;99.90
3023;DHT22;1521;53.584;9.938;2023-03-23T03:20:28;10.80;99.90
3023;DHT22;1521;53.584;9.938;2023-03-23T03:22:55;10.70;99.90
3023;DHT22;1521;53.584;9.938;2023-03-23T03:25:21;10.80;99.90
3023;DHT22;1521;53.584;9.938;2023-03-23T03:27:48;10.70;99.90
3023;DHT22;1521;53.584;9.938;2023-03-23T03:30:21;10.80;99.90
3023;DHT22;1521;53.584;9.938;2023-03-23T03:32:51;10.80;99.90
3023;DHT22;1521;53.584;9.938;2023-03-23T03:35:20;10.80;99.90
3023;DHT22;1521;53.584;9.938;2023-03-23T03:37:46;10.80;99.90
3023;DHT22;1521;53.584;9.938;2023-03-23T03:40:16;10.80;99.90
3023;DHT22;1521;53.584;9.938;2023-03-23T03:42:43;10.80;99.90
3023;DHT22;1521;53.584;9.938;2023-03-23T03:45:15;10.80;99.90
3023;DHT22;1521;53.584;9.938;2023-03-23T03:47:40;10.80;99.90
3023;DHT22;1521;53.584;9.938;2023-03-23T03:50:06;10.80;99.90
3023;DHT22;1521;53.584;9.938;2023-03-23T03:53:09;10.80;99.90
3023;DHT22;1521;53.584;9.938;2023-03-23T03:55:35;10.90;99.90
3023;DHT22;1521;53.584;9.938;2023-03-23T03:58:02;11.00;99.90
3023;DHT22;1521;53.584;9.938;2023-03-23T04:00:29;10.90;99.90
3023;DHT22;1521;53.584;9.938;2023-03-23T04:02:55;10.90;99.90
3023;DHT22;1521;53.584;9.938;2023-03-23T04:05:22;10.90;99.90
3023;DHT22;1521;53.584;9.938;2023-03-23T04:07:49;11.00;99.90
3023;DHT22;1521;53.584;9.938;2023-03-23T04:10:17;11.10;86.10
3023;DHT22;1521;53.584;9.938;2023-03-23T04:12:45;11.10;37.90
3023;DHT22;1521;53.584;9.938;2023-03-23T04:15:10;11.10;11.00
3023;DHT22;1521;53.584;9.938;2023-03-23T04:17:36;11.10;5.70
3023;DHT22;1521;53.584;9.938;2023-03-23T04:20:03;11.20;1.00
3023;DHT22;1521;53.584;9.938;2023-03-23T04:22:38;11.10;1.00
3023;DHT22;1521;53.584;9.938;2023-03-23T04:25:04;11.00;1.00
3023;DHT22;1521;53.584;9.938;2023-03-23T04:27:32;11.10;13.90
3023;DHT22;1521;53.584;9.938;2023-03-23T04:29:58;11.10;18.70
3023;DHT22;1521;53.584;9.938;2023-03-23T04:32:25;11.10;19.60
3023;DHT22;1521;53.584;9.938;2023-03-23T04:34:55;11.10;16.60
3023;DHT22;1521;53.584;9.938;2023-03-23T04:37:22;11.00;11.90
3023;DHT22;1521;53.584;9.938;2023-03-23T04:39:51;11.00;7.40
3023;DHT22;1521;53.584;9.938;2023-03-23T04:42:28;10.90;14.90
3023;DHT22;1521;53.584;9.938;2023-03-23T04:44:56;10.90;27.90
3023;DHT22;1521;53.584;9.938;2023-03-23T04:47:21;11.00;42.40
3023;DHT22;1521;53.584;9.938;2023-03-23T04:49:47;10.90;30.90
3023;DHT22;1521;53.584;9.938;2023-03-23T04:52:13;10.90;30.60
3023;DHT22;1521;53.584;9.938;2023-03-23T04:54:39;10.90;31.10
3023;DHT22;1521;53.584;9.938;2023-03-23T04:57:05;11.00;8.00
3023;DHT22;1521;53.584;9.938;2023-03-23T04:59:33;11.00;1.00
3023;DHT22;1521;53.584;9.938;2023-03-23T05:01:59;11.00;1.00
3023;DHT22;1521;53.584;9.938;2023-03-23T05:04:25;11.00;1.00
3023;DHT22;1521;53.584;9.938;2023-03-23T05:06:51;11.10;1.00
3023;DHT22;1521;53.584;9.938;2023-03-23T05:09:17;11.10;1.00
3023;DHT22;1521;53.584;9.938;2023-03-23T05:11:42;11.20;1.00
3023;DHT22;1521;53.584;9.938;2023-03-23T05:14:08;11.20;1.00
3023;DHT22;1521;53.584;9.938;2023-03-23T05:16:35;11.20;1.00
3023;DHT22;1521;53.584;9.938;2023-03-23T05:19:02;11.30;1.00
3023;DHT22;1521;53.584;9.938;2023-03-23T05:21:27;11.30;1.00
3023;DHT22;1521;53.584;9.938;2023-03-23T05:23:53;11.30;1.00
3023;DHT22;1521;53.584;9.938;2023-03-23T05:26:23;11.30;1.00
3023;DHT22;1521;53.584;9.938;2023-03-23T05:28:54;11.30;1.00
3023;DHT22;1521;53.584;9.938;2023-03-23T05:31:21;11.30;1.00
3023;DHT22;1521;53.584;9.938;2023-03-23T05:33:47;11.30;1.00
3023;DHT22;1521;53.584;9.938;2023-03-23T05:36:12;11.20;1.00
3023;DHT22;1521;53.584;9.938;2023-03-23T05:38:41;11.30;1.00
3023;DHT22;1521;53.584;9.938;2023-03-23T05:41:11;11.20;1.00
3023;DHT22;1521;53.584;9.938;2023-03-23T05:43:37;11.20;1.00
3023;DHT22;1521;53.584;9.938;2023-03-23T05:46:03;11.20;1.00
3023;DHT22;1521;53.584;9.938;2023-03-23T05:48:29;11.20;1.00
3023;DHT22;1521;53.584;9.938;2023-03-23T05:50:54;11.20;1.00
3023;DHT22;1521;53.584;9.938;2023-03-23T05:53:20;11.20;1.00
3023;DHT22;1521;53.584;9.938;2023-03-23T05:55:46;11.20;1.00
3023;DHT22;1521;53.584;9.938;2023-03-23T05:58:12;11.10;1.00
3023;DHT22;1521;53.584;9.938;2023-03-23T06:00:37;11.20;1.00
3023;DHT22;1521;53.584;9.938;2023-03-23T06:03:04;11.10;1.00
3023;DHT22;1521;53.584;9.938;2023-03-23T06:05:31;11.10;1.00
3023;DHT22;1521;53.584;9.938;2023-03-23T06:07:58;11.10;1.00
3023;DHT22;1521;53.584;9.938;2023-03-23T06:10:24;11.10;1.00
3023;DHT22;1521;53.584;9.938;2023-03-23T06:12:50;11.10;1.00
3023;DHT22;1521;53.584;9.938;2023-03-23T06:15:19;11.00;1.00
3023;DHT22;1521;53.584;9.938;2023-03-23T06:17:45;11.00;1.00
3023;DHT22;1521;53.584;9.938;2023-03-23T06:20:11;11.00;1.00
3023;DHT22;1521;53.584;9.938;2023-03-23T06:22:37;11.00;1.00
3023;DHT22;1521;53.584;9.938;2023-03-23T06:25:05;11.00;1.00
3023;DHT22;1521;53.584;9.938;2023-03-23T06:27:31;11.00;1.00
3023;DHT22;1521;53.584;9.938;2023-03-23T06:29:57;11.00;1.00
3023;DHT22;1521;53.584;9.938;2023-03-23T06:32:24;11.00;1.00
3023;DHT22;1521;53.584;9.938;2023-03-23T06:34:50;11.10;1.00
3023;DHT22;1521;53.584;9.938;2023-03-23T06:37:15;11.10;1.00
3023;DHT22;1521;53.584;9.938;2023-03-23T06:39:41;11.20;1.00
3023;DHT22;1521;53.584;9.938;2023-03-23T06:42:10;11.20;1.00
3023;DHT22;1521;53.584;9.938;2023-03-23T06:44:38;11.30;1.00
3023;DHT22;1521;53.584;9.938;2023-03-23T06:47:04;11.30;1.00
3023;DHT22;1521;53.584;9.938;2023-03-23T06:49:30;11.40;99.90
3023;DHT22;1521;53.584;9.938;2023-03-23T06:51:56;11.50;99.90
3023;DHT22;1521;53.584;9.938;2023-03-23T06:54:23;11.40;99.90
3023;DHT22;1521;53.584;9.938;2023-03-23T06:56:48;11.50;99.90
3023;DHT22;1521;53.584;9.938;2023-03-23T06:59:14;11.60;99.90
3023;DHT22;1521;53.584;9.938;2023-03-23T07:01:40;11.60;99.90
3023;DHT22;1521;53.584;9.938;2023-03-23T07:04:05;11.70;99.90
3023;DHT22;1521;53.584;9.938;2023-03-23T07:06:31;11.80;99.90
3023;DHT22;1521;53.584;9.938;2023-03-23T07:08:57;11.80;12.50
3023;DHT22;1521;53.584;9.938;2023-03-23T07:11:23;11.90;1.00
3023;DHT22;1521;53.584;9.938;2023-03-23T07:13:49;12.00;1.00
3023;DHT22;1521;53.584;9.938;2023-03-23T07:16:16;12.30;99.90
3023;DHT22;1521;53.584;9.938;2023-03-23T07:18:42;12.50;1.00
3023;DHT22;1521;53.584;9.938;2023-03-23T07:21:08;12.50;97.50
3023;DHT22;1521;53.584;9.938;2023-03-23T07:23:33;12.50;99.90
3023;DHT22;1521;53.584;9.938;2023-03-23T07:25:59;12.40;99.90
3023;DHT22;1521;53.584;9.938;2023-03-23T07:28:26;12.30;99.90
3023;DHT22;1521;53.584;9.938;2023-03-23T07:30:52;12.30;99.90
3023;DHT22;1521;53.584;9.938;2023-03-23T07:33:18;12.30;1.00
3023;DHT22;1521;53.584;9.938;2023-03-23T07:35:43;12.50;99.90
3023;DHT22;1521;53.584;9.938;2023-03-23T07:38:09;12.60;99.90
3023;DHT22;1521;53.584;9.938;2023-03-23T07:40:35;12.70;99.90
3023;DHT22;1521;53.584;9.938;2023-03-23T07:43:02;12.90;48.80
3023;DHT22;1521;53.584;9.938;2023-03-23T07:45:29;13.20;99.90
3023;DHT22;1521;53.584;9.938;2023-03-23T07:47:55;13.20;1.00
3023;DHT22;1521;53.584;9.938;2023-03-23T07:50:21;13.00;99.90
3023;DHT22;1521;53.584;9.938;2023-03-23T07:52:56;12.80;59.90
3023;DHT22;1521;53.584;9.938;2023-03-23T07:55:23;12.60;1.00
3023;DHT22;1521;53.584;9.938;2023-03-23T07:57:50;12.40;1.00
3023;DHT22;1521;53.584;9.938;2023-03-23T08:00:17;12.30;99.90
3023;DHT22;1521;53.584;9.938;2023-03-23T08:02:51;12.20;99.90
3023;DHT22;1521;53.584;9.938;2023-03-23T08:05:17;12.20;1.00
3023;DHT22;1521;53.584;9.938;2023-03-23T08:07:44;12.20;1.00
3023;DHT22;1521;53.584;9.938;2023-03-23T08:10:12;12.10;1.00
3023;DHT22;1521;53.584;9.938;2023-03-23T08:12:39;12.10;1.00
3023;DHT22;1521;53.584;9.938;2023-03-23T08:15:06;12.00;1.00
3023;DHT22;1521;53.584;9.938;2023-03-23T08:17:33;11.90;82.30
3023;DHT22;1521;53.584;9.938;2023-03-23T08:20:00;11.90;99.90
3023;DHT22;1521;53.584;9.938;2023-03-23T08:22:26;11.90;99.90
3023;DHT22;1521;53.584;9.938;2023-03-23T08:24:51;11.80;99.90
3023;DHT22;1521;53.584;9.938;2023-03-23T08:27:18;11.60;99.90
3023;DHT22;1521;53.584;9.938;2023-03-23T08:29:47;11.40;99.90
3023;DHT22;1521;53.584;9.938;2023-03-23T08:32:13;11.30;99.90
3023;DHT22;1521;53.584;9.938;2023-03-23T08:34:40;11.20;99.90
3023;DHT22;1521;53.584;9.938;2023-03-23T08:37:07;11.20;99.90
3023;DHT22;1521;53.584;9.938;2023-03-23T08:39:33;11.20;99.90
3023;DHT22;1521;53.584;9.938;2023-03-23T08:41:59;11.20;98.50
3023;DHT22;1521;53.584;9.938;2023-03-23T08:44:24;11.20;98.40
3023;DHT22;1521;53.584;9.938;2023-03-23T08:46:50;11.30;99.90
3023;DHT22;1521;53.584;9.938;2023-03-23T08:49:23;11.40;72.40
3023;DHT22;1521;53.584;9.938;2023-03-23T08:51:49;11.60;1.00
3023;DHT22;1521;53.584;9.938;2023-03-23T08:54:14;11.90;1.00
3023;DHT22;1521;53.584;9.938;2023-03-23T08:56:41;12.10;1.00
3023;DHT22;1521;53.584;9.938;2023-03-23T08:59:07;12.20;99.90
3023;DHT22;1521;53.584;9.938;2023-03-23T09:01:33;12.10;99.90
3023;DHT22;1521;53.584;9.938;2023-03-23T09:03:58;12.10;1.00
3023;DHT22;1521;53.584;9.938;2023-03-23T09:06:25;12.10;99.90
3023;DHT22;1521;53.584;9.938;2023-03-23T09:08:51;12.20;99.90
3023;DHT22;1521;53.584;9.938;2023-03-23T09:11:17;12.30;99.90
3023;DHT22;1521;53.584;9.938;2023-03-23T09:13:43;12.60;62.00
3023;DHT22;1521;53.584;9.938;2023-03-23T09:16:09;12.60;99.90
3023;DHT22;1521;53.584;9.938;2023-03-23T09:18:35;12.60;1.00
3023;DHT22;1521;53.584;9.938;2023-03-23T09:21:02;12.50;99.90
3023;DHT22;1521;53.584;9.938;2023-03-23T09:23:28;12.40;99.90
3023;DHT22;1521;53.584;9.938;2023-03-23T09:25:55;12.40;1.00
3023;DHT22;1521;53.584;9.938;2023-03-23T09:28:21;12.30;99.90
3023;DHT22;1521;53.584;9.938;2023-03-23T09:30:47;12.30;99.90
3023;DHT22;1521;53.584;9.938;2023-03-23T09:33:13;12.40;1.00
3023;DHT22;1521;53.584;9.938;2023-03-23T09:35:40;12.40;1.00
3023;DHT22;1521;53.584;9.938;2023-03-23T09:38:08;12.40;1.00
3023;DHT22;1521;53.584;9.938;2023-03-23T09:40:52;12.40;99.90
3023;DHT22;1521;53.584;9.938;2023-03-23T09:48:55;12.90;1.00
3023;DHT22;1521;53.584;9.938;2023-03-23T09:54:03;13.20;99.90
3023;DHT22;1521;53.584;9.938;2023-03-23T09:56:32;13.40;1.00
3023;DHT22;1521;53.584;9.938;2023-03-23T10:02:36;13.70;99.90
3023;DHT22;1521;53.584;9.938;2023-03-23T10:05:37;13.70;99.90
3023;DHT22;1521;53.584;9.938;2023-03-23T10:08:33;13.80;1.00
3023;DHT22;1521;53.584;9.938;2023-03-23T10:11:32;13.80;93.40
3023;DHT22;1521;53.584;9.938;2023-03-23T10:14:31;13.60;99.90
3023;DHT22;1521;53.584;9.938;2023-03-23T10:22:40;13.60;99.90
3023;DHT22;1521;53.584;9.938;2023-03-23T10:30:33;13.40;79.20
3023;DHT22;1521;53.584;9.938;2023-03-23T10:35:52;13.40;99.90
3023;DHT22;1521;53.584;9.938;2023-03-23T10:38:23;13.80;99.10
3023;DHT22;1521;53.584;9.938;2023-03-23T10:40:56;14.20;51.40
3023;DHT22;1521;53.584;9.938;2023-03-23T10:43:24;14.40;7.70
3023;DHT22;1521;53.584;9.938;2023-03-23T10:45:58;14.30;4.80
3023;DHT22;1521;53.584;9.938;2023-03-23T10:48:37;14.10;1.00
3023;DHT22;1521;53.584;9.938;2023-03-23T10:51:07;13.80;1.00
3023;DHT22;1521;53.584;9.938;2023-03-23T10:53:37;13.60;1.00
3023;DHT22;1521;53.584;9.938;2023-03-23T10:56:04;13.60;1.00
3023;DHT22;1521;53.584;9.938;2023-03-23T10:58:33;13.60;1.00
3023;DHT22;1521;53.584;9.938;2023-03-23T11:01:00;13.50;1.00
3023;DHT22;1521;53.584;9.938;2023-03-23T11:06:03;13.90;1.00
3023;DHT22;1521;53.584;9.938;2023-03-23T11:08:33;14.20;1.00
3023;DHT22;1521;53.584;9.938;2023-03-23T11:11:17;14.40;1.00
3023;DHT22;1521;53.584;9.938;2023-03-23T11:13:44;14.60;1.00
3023;DHT22;1521;53.584;9.938;2023-03-23T11:16:34;14.70;1.00
3023;DHT22;1521;53.584;9.938;2023-03-23T11:19:15;14.70;1.00
3023;DHT22;1521;53.584;9.938;2023-03-23T11:21:47;14.50;1.00
3023;DHT22;1521;53.584;9.938;2023-03-23T11:24:13;14.40;1.00
3023;DHT22;1521;53.584;9.938;2023-03-23T11:26:39;14.40;1.00
3023;DHT22;1521;53.584;9.938;2023-03-23T11:31:38;14.20;1.00
3023;DHT22;1521;53.584;9.938;2023-03-23T11:34:13;14.20;1.00
3023;DHT22;1521;53.584;9.938;2023-03-23T11:36:43;14.20;1.00
3023;DHT22;1521;53.584;9.938;2023-03-23T11:39:28;14.30;1.00
3023;DHT22;1521;53.584;9.938;2023-03-23T11:41:57;14.50;1.00
3023;DHT22;1521;53.584;9.938;2023-03-23T11:44:24;14.20;1.00
3023;DHT22;1521;53.584;9.938;2023-03-23T11:47:04;14.00;1.00
3023;DHT22;1521;53.584;9.938;2023-03-23T11:50:02;13.80;1.00
3023;DHT22;1521;53.584;9.938;2023-03-23T11:52:33;13.70;1.00
3023;DHT22;1521;53.584;9.938;2023-03-23T11:55:22;13.70;1.00
3023;DHT22;1521;53.584;9.938;2023-03-23T11:57:49;13.60;1.00
3023;DHT22;1521;53.584;9.938;2023-03-23T12:00:19;13.40;26.10
3023;DHT22;1521;53.584;9.938;2023-03-23T12:06:02;13.30;45.50
3023;DHT22;1521;53.584;9.938;2023-03-23T12:08:53;13.30;55.30
3023;DHT22;1521;53.584;9.938;2023-03-23T12:11:31;13.30;46.10
3023;DHT22;1521;53.584;9.938;2023-03-23T12:16:58;13.30;76.70
3023;DHT22;1521;53.584;9.938;2023-03-23T12:19:46;13.50;57.20
3023;DHT22;1521;53.584;9.938;2023-03-23T12:36:01;13.00;99.90
3023;DHT22;1521;53.584;9.938;2023-03-23T12:41:19;13.00;99.90
3023;DHT22;1521;53.584;9.938;2023-03-23T12:43:53;13.00;99.90
3023;DHT22;1521;53.584;9.938;2023-03-23T12:46:27;12.80;99.90
3023;DHT22;1521;53.584;9.938;2023-03-23T12:51:43;12.90;99.90
3023;DHT22;1521;53.584;9.938;2023-03-23T12:59:41;13.10;99.90
3023;DHT22;1521;53.584;9.938;2023-03-23T13:02:22;13.30;99.90
3023;DHT22;1521;53.584;9.938;2023-03-23T13:05:05;14.00;99.90
3023;DHT22;1521;53.584;9.938;2023-03-23T13:07:56;15.10;22.00
3023;DHT22;1521;53.584;9.938;2023-03-23T13:10:29;16.00;1.00
3023;DHT22;1521;53.584;9.938;2023-03-23T13:12:56;16.40;1.00
3023;DHT22;1521;53.584;9.938;2023-03-23T13:15:34;16.30;1.00
3023;DHT22;1521;53.584;9.938;2023-03-23T13:18:37;15.70;1.00
3023;DHT22;1521;53.584;9.938;2023-03-23T13:21:20;15.50;1.00
3023;DHT22;1521;53.584;9.938;2023-03-23T13:23:55;15.10;1.00
3023;DHT22;1521;53.584;9.938;2023-03-23T13:26:23;14.90;1.00
3023;DHT22;1521;53.584;9.938;2023-03-23T13:28:51;15.30;1.00
3023;DHT22;1521;53.584;9.938;2023-03-23T13:31:32;15.20;1.00
3023;DHT22;1521;53.584;9.938;2023-03-23T13:34:04;14.80;1.00
3023;DHT22;1521;53.584;9.938;2023-03-23T13:38:56;14.50;1.00
3023;DHT22;1521;53.584;9.938;2023-03-23T13:41:23;14.40;1.00
3023;DHT22;1521;53.584;9.938;2023-03-23T13:43:48;14.30;1.00
3023;DHT22;1521;53.584;9.938;2023-03-23T13:48:50;14.20;1.00
3023;DHT22;1521;53.584;9.938;2023-03-23T13:54:19;13.80;1.00
3023;DHT22;1521;53.584;9.938;2023-03-23T13:56:59;13.70;1.00
3023;DHT22;1521;53.584;9.938;2023-03-23T14:01:56;12.60;1.00
3023;DHT22;1521;53.584;9.938;2023-03-23T14:04:23;12.00;1.00
3023;DHT22;1521;53.584;9.938;2023-03-23T14:06:57;11.50;1.00
3023;DHT22;1521;53.584;9.938;2023-03-23T14:09:36;11.10;1.00
3023;DHT22;1521;53.584;9.938;2023-03-23T14:14:48;10.40;1.00
3023;DHT22;1521;53.584;9.938;2023-03-23T14:17:19;10.30;99.90
3023;DHT22;1521;53.584;9.938;2023-03-23T14:19:49;10.40;99.90
3023;DHT22;1521;53.584;9.938;2023-03-23T14:22:33;10.50;1.00
3023;DHT22;1521;53.584;9.938;2023-03-23T14:25:01;10.60;99.90
3023;DHT22;1521;53.584;9.938;2023-03-23T14:27:30;10.70;99.90
3023;DHT22;1521;53.584;9.938;2023-03-23T14:30:04;11.00;99.90
3023;DHT22;1521;53.584;9.938;2023-03-23T14:32:31;11.80;79.50
3023;DHT22;1521;53.584;9.938;2023-03-23T14:34:58;12.70;99.90
3023;DHT22;1521;53.584;9.938;2023-03-23T14:37:25;13.40;99.90
3023;DHT22;1521;53.584;9.938;2023-03-23T14:39:53;13.80;25.50
3023;DHT22;1521;53.584;9.938;2023-03-23T14:42:27;13.70;1.00
3023;DHT22;1521;53.584;9.938;2023-03-23T14:44:53;13.80;1.00
3023;DHT22;1521;53.584;9.938;2023-03-23T14:47:29;14.00;1.00
3023;DHT22;1521;53.584;9.938;2023-03-23T14:49:58;14.20;1.00
3023;DHT22;1521;53.584;9.938;2023-03-23T14:52:34;14.50;1.00
3023;DHT22;1521;53.584;9.938;2023-03-23T14:55:14;14.70;1.00
3023;DHT22;1521;53.584;9.938;2023-03-23T14:57:41;14.70;1.00
3023;DHT22;1521;53.584;9.938;2023-03-23T15:00:16;14.50;1.00
3023;DHT22;1521;53.584;9.938;2023-03-23T15:02:46;14.60;1.00
3023;DHT22;1521;53.584;9.938;2023-03-23T15:05:14;14.70;1.00
3023;DHT22;1521;53.584;9.938;2023-03-23T15:07:44;14.70;1.00
3023;DHT22;1521;53.584;9.938;2023-03-23T15:10:16;14.50;1.00
3023;DHT22;1521;53.584;9.938;2023-03-23T15:12:48;14.00;1.00
3023;DHT22;1521;53.584;9.938;2023-03-23T15:15:24;13.40;1.00
3023;DHT22;1521;53.584;9.938;2023-03-23T15:17:50;13.00;1.00
3023;DHT22;1521;53.584;9.938;2023-03-23T15:23:26;12.60;1.00
3023;DHT22;1521;53.584;9.938;2023-03-23T15:25:54;12.40;2.20
3023;DHT22;1521;53.584;9.938;2023-03-23T15:28:27;12.30;13.10
3023;DHT22;1521;53.584;9.938;2023-03-23T15:30:55;12.30;5.80
3023;DHT22;1521;53.584;9.938;2023-03-23T15:33:23;12.20;1.00
3023;DHT22;1521;53.584;9.938;2023-03-23T15:35:54;12.20;5.00
3023;DHT22;1521;53.584;9.938;2023-03-23T15:38:30;12.30;1.00
3023;DHT22;1521;53.584;9.938;2023-03-23T15:40:59;12.40;1.00
3023;DHT22;1521;53.584;9.938;2023-03-23T15:46:03;12.50;51.80
3023;DHT22;1521;53.584;9.938;2023-03-23T15:48:53;12.60;52.50
3023;DHT22;1521;53.584;9.938;2023-03-23T15:51:24;12.50;13.50
3023;DHT22;1521;53.584;9.938;2023-03-23T15:53:51;12.40;11.80
3023;DHT22;1521;53.584;9.938;2023-03-23T15:56:17;12.40;27.60
3023;DHT22;1521;53.584;9.938;2023-03-23T15:58:43;12.30;52.00
3023;DHT22;1521;53.584;9.938;2023-03-23T16:01:15;12.20;97.30
3023;DHT22;1521;53.584;9.938;2023-03-23T16:03:49;12.10;99.90
3023;DHT22;1521;53.584;9.938;2023-03-23T16:06:17;12.00;99.90
3023;DHT22;1521;53.584;9.938;2023-03-23T16:08:43;11.90;99.90
3023;DHT22;1521;53.584;9.938;2023-03-23T16:11:13;11.80;99.90
3023;DHT22;1521;53.584;9.938;2023-03-23T16:13:39;11.80;99.90
3023;DHT22;1521;53.584;9.938;2023-03-23T16:16:06;11.80;99.90
3023;DHT22;1521;53.584;9.938;2023-03-23T16:18:33;11.70;99.90
3023;DHT22;1521;53.584;9.938;2023-03-23T16:20:59;11.60;1.00
3023;DHT22;1521;53.584;9.938;2023-03-23T16:23:25;11.40;1.00
3023;DHT22;1521;53.584;9.938;2023-03-23T16:25:51;11.50;99.90
3023;DHT22;1521;53.584;9.938;2023-03-23T16:28:17;11.40;1.00
3023;DHT22;1521;53.584;9.938;2023-03-23T16:30:45;11.60;99.90
3023;DHT22;1521;53.584;9.938;2023-03-23T16:33:11;11.80;99.90
3023;DHT22;1521;53.584;9.938;2023-03-23T16:35:37;11.90;99.90
3023;DHT22;1521;53.584;9.938;2023-03-23T16:38:04;11.90;99.90
3023;DHT22;1521;53.584;9.938;2023-03-23T16:40:29;11.90;99.90
3023;DHT22;1521;53.584;9.938;2023-03-23T16:42:55;11.80;99.90
3023;DHT22;1521;53.584;9.938;2023-03-23T16:45:21;11.70;99.90
3023;DHT22;1521;53.584;9.938;2023-03-23T16:47:48;11.70;99.90
3023;DHT22;1521;53.584;9.938;2023-03-23T16:50:15;11.70;99.90
3023;DHT22;1521;53.584;9.938;2023-03-23T16:52:43;11.70;99.90
3023;DHT22;1521;53.584;9.938;2023-03-23T16:55:10;11.70;99.90
3023;DHT22;1521;53.584;9.938;2023-03-23T16:57:37;11.70;99.90
3023;DHT22;1521;53.584;9.938;2023-03-23T17:00:09;11.80;97.80
3023;DHT22;1521;53.584;9.938;2023-03-23T17:02:36;11.80;87.50
3023;DHT22;1521;53.584;9.938;2023-03-23T17:05:02;11.80;50.40
3023;DHT22;1521;53.584;9.938;2023-03-23T17:07:28;11.80;37.80
3023;DHT22;1521;53.584;9.938;2023-03-23T17:09:54;11.80;26.70
3023;DHT22;1521;53.584;9.938;2023-03-23T17:12:20;11.80;15.70
3023;DHT22;1521;53.584;9.938;2023-03-23T17:14:46;11.80;13.20
3023;DHT22;1521;53.584;9.938;2023-03-23T17:17:11;11.80;1.00
3023;DHT22;1521;53.584;9.938;2023-03-23T17:19:37;11.70;1.00
3023;DHT22;1521;53.584;9.938;2023-03-23T17:22:03;11.80;1.00
3023;DHT22;1521;53.584;9.938;2023-03-23T17:24:29;11.70;1.00
3023;DHT22;1521;53.584;9.938;2023-03-23T17:26:54;11.80;1.00
3023;DHT22;1521;53.584;9.938;2023-03-23T17:29:20;11.70;1.00
3023;DHT22;1521;53.584;9.938;2023-03-23T17:31:50;11.60;1.00
3023;DHT22;1521;53.584;9.938;2023-03-23T17:34:16;11.50;5.10
3023;DHT22;1521;53.584;9.938;2023-03-23T17:36:42;11.50;16.10
3023;DHT22;1521;53.584;9.938;2023-03-23T17:39:08;11.40;19.00
3023;DHT22;1521;53.584;9.938;2023-03-23T17:41:33;11.30;30.10
3023;DHT22;1521;53.584;9.938;2023-03-23T17:43:59;11.20;38.40
3023;DHT22;1521;53.584;9.938;2023-03-23T17:46:25;11.20;47.60
3023;DHT22;1521;53.584;9.938;2023-03-23T17:48:51;11.10;56.80
3023;DHT22;1521;53.584;9.938;2023-03-23T17:51:17;11.00;64.90
3023;DHT22;1521;53.584;9.938;2023-03-23T17:53:42;10.90;90.90
3023;DHT22;1521;53.584;9.938;2023-03-23T17:56:08;10.80;99.90
3023;DHT22;1521;53.584;9.938;2023-03-23T17:58:34;10.80;99.90
3023;DHT22;1521;53.584;9.938;2023-03-23T18:01:00;10.70;99.90